createdAt,value
2023-05-19T00:01:55.043Z,98651.47
2023-05-19T00:04:58.748Z,98641.38
2023-05-19T00:08:05.042Z,98652.56
2023-05-19T00:11:08.927Z,98652.97
2023-05-19T00:14:12.805Z,98648.28
2023-05-19T00:17:17.135Z,98648.66
2023-05-19T00:20:20.312Z,98638.66
2023-05-19T00:23:24.817Z,98644.34
2023-05-19T00:26:28.626Z,98637.94
2023-05-19T00:29:38.125Z,98642.59
2023-05-19T00:32:41.832Z,98637.34
2023-05-19T00:35:45.319Z,98637.50
2023-05-19T00:38:51.143Z,98631.41
2023-05-19T00:41:54.327Z,98635.03
2023-05-19T00:44:57.533Z,98625.56
2023-05-19T00:48:01.166Z,98629.13
2023-05-19T00:51:06.617Z,98627.00
2023-05-19T00:54:11.476Z,98621.41
2023-05-19T00:57:16.026Z,98622.19
2023-05-19T01:00:19.580Z,98620.34
2023-05-19T01:03:23.465Z,98617.88
2023-05-19T01:06:27.793Z,98616.31
2023-05-19T01:09:32.673Z,98607.59
2023-05-19T01:12:37.700Z,98602.00
2023-05-19T01:15:58.980Z,98602.53
2023-05-19T01:19:14.389Z,98597.69
2023-05-19T01:22:28.636Z,98601.41
2023-05-19T01:26:06.974Z,98597.69
2023-05-19T01:29:29.179Z,98596.47
2023-05-19T01:32:35.635Z,98508.38
2023-05-19T01:35:40.803Z,98591.47
2023-05-19T01:38:45.170Z,98595.28
2023-05-19T01:41:49.372Z,98591.47
2023-05-19T01:44:54.039Z,98591.66
2023-05-19T01:48:00.935Z,98599.78
2023-05-19T01:51:04.244Z,98594.84
2023-05-19T01:54:07.580Z,98590.53
2023-05-19T01:57:17.241Z,98593.28
2023-05-19T02:00:30.879Z,98600.59
2023-05-19T02:03:47.791Z,98598.63
2023-05-19T02:07:01.253Z,98603.75
2023-05-19T02:10:07.956Z,98602.56
2023-05-19T02:13:14.660Z,98602.13
2023-05-19T02:16:18.884Z,98601.06
2023-05-19T02:19:26.040Z,98520.53
2023-05-19T02:22:31.777Z,98600.31
2023-05-19T02:25:35.348Z,98598.53
2023-05-19T02:28:38.541Z,98584.88
2023-05-19T02:31:41.710Z,98587.63
2023-05-19T02:34:48.398Z,98590.00
2023-05-19T02:37:51.659Z,98591.78
2023-05-19T02:40:55.478Z,98570.59
2023-05-19T02:43:59.008Z,98570.09
2023-05-19T02:47:02.194Z,98564.66
2023-05-19T02:50:08.871Z,98575.31
2023-05-19T02:53:12.078Z,98568.53
2023-05-19T02:56:15.796Z,98583.75
2023-05-19T02:59:19.035Z,98566.22
2023-05-19T03:02:22.227Z,98564.06
2023-05-19T03:05:26.793Z,98567.06
2023-05-19T03:08:30.312Z,98565.06
2023-05-19T03:11:33.583Z,98563.69
2023-05-19T03:14:38.570Z,98569.22
2023-05-19T03:17:42.742Z,98564.00
2023-05-19T03:20:47.456Z,98570.88
2023-05-19T03:23:50.782Z,98573.69
2023-05-19T03:26:54.347Z,98583.31
2023-05-19T03:29:57.533Z,98578.38
2023-05-19T03:34:36.364Z,98581.00
2023-05-19T03:37:39.679Z,98584.94
2023-05-19T03:40:44.028Z,98583.59
2023-05-19T03:43:48.255Z,98583.00
2023-05-19T03:46:51.605Z,98584.06
2023-05-19T03:50:29.136Z,98584.41
2023-05-19T03:53:38.256Z,98594.41
2023-05-19T03:56:41.960Z,98592.41
2023-05-19T03:59:46.121Z,98589.22
2023-05-19T04:02:49.317Z,98598.16
2023-05-19T04:05:54.130Z,98604.44
2023-05-19T04:08:57.321Z,98601.44
2023-05-19T04:12:01.264Z,98604.66
2023-05-19T04:15:05.798Z,98600.19
2023-05-19T04:18:09.069Z,98596.19
2023-05-19T04:21:13.678Z,98590.66
2023-05-19T04:24:16.823Z,98600.22
2023-05-19T04:27:21.931Z,98599.38
2023-05-19T04:30:25.250Z,98600.94
2023-05-19T04:33:29.241Z,98604.25
2023-05-19T04:36:34.053Z,98605.34
2023-05-19T04:39:41.312Z,98602.78
2023-05-19T04:42:46.009Z,98606.22
2023-05-19T04:45:51.449Z,98601.22
2023-05-19T04:48:57.074Z,98603.38
2023-05-19T04:52:02.610Z,98603.56
2023-05-19T04:55:07.657Z,98601.03
2023-05-19T04:58:11.566Z,98594.31
2023-05-19T05:01:15.740Z,98596.66
2023-05-19T05:04:19.544Z,98594.75
2023-05-19T05:07:24.142Z,98592.38
2023-05-19T05:10:29.122Z,98593.91
2023-05-19T05:13:33.026Z,98590.00
2023-05-19T05:16:38.300Z,98586.84
2023-05-19T05:19:43.336Z,98585.81
2023-05-19T05:22:48.949Z,98585.69
2023-05-19T05:25:53.547Z,98585.91
2023-05-19T05:28:56.854Z,98557.19
2023-05-19T05:32:00.839Z,98569.13
2023-05-19T05:35:04.501Z,98580.91
2023-05-19T05:38:11.345Z,98578.19
2023-05-19T05:41:14.797Z,98581.97
2023-05-19T05:44:18.261Z,98589.41
2023-05-19T05:47:22.409Z,98595.06
2023-05-19T05:50:26.383Z,98584.63
2023-05-19T05:53:37.788Z,98570.84
2023-05-19T05:56:41.671Z,98568.94
2023-05-19T05:59:47.132Z,98584.72
2023-05-19T06:02:52.310Z,98593.41
2023-05-19T06:06:03.903Z,98587.03
2023-05-19T06:09:08.471Z,98583.34
2023-05-19T06:12:12.037Z,98586.53
2023-05-19T06:15:21.073Z,98587.16
2023-05-19T06:18:27.665Z,98585.09
2023-05-19T06:21:30.880Z,98577.81
2023-05-19T06:24:38.763Z,98580.81
2023-05-19T06:27:44.882Z,98577.66
2023-05-19T06:30:50.494Z,98579.50
2023-05-19T06:33:59.839Z,98581.69
2023-05-19T06:37:03.248Z,98585.28
2023-05-19T06:40:10.692Z,98582.16
2023-05-19T06:43:15.981Z,98588.66
2023-05-19T06:46:45.278Z,98586.53
2023-05-19T06:49:50.680Z,98584.56
2023-05-19T06:52:54.131Z,98583.59
2023-05-19T06:56:00.201Z,98576.53
2023-05-19T06:59:10.298Z,98584.47
2023-05-19T07:02:14.764Z,98580.03
2023-05-19T07:05:20.186Z,98582.06
2023-05-19T07:08:29.027Z,98569.28
2023-05-19T07:11:34.580Z,98573.59
2023-05-19T07:14:38.914Z,98565.16
2023-05-19T07:17:42.642Z,98559.06
2023-05-19T07:20:46.838Z,98490.31
2023-05-19T07:23:50.140Z,98553.97
2023-05-19T07:26:54.645Z,98553.03
2023-05-19T07:29:58.200Z,98543.91
2023-05-19T07:33:01.389Z,98545.50
2023-05-19T07:36:05.217Z,98534.41
2023-05-19T07:39:08.889Z,98547.00
2023-05-19T07:42:13.426Z,98539.59
2023-05-19T07:45:16.753Z,98540.50
2023-05-19T07:48:22.342Z,98535.91
2023-05-19T07:51:25.586Z,98530.59
2023-05-19T07:54:28.813Z,98531.38
2023-05-19T07:57:35.231Z,98539.63
2023-05-19T08:00:38.592Z,98527.75
2023-05-19T08:03:41.974Z,98540.63
2023-05-19T08:06:45.388Z,98527.66
2023-05-19T08:09:48.633Z,98511.81
2023-05-19T08:12:53.244Z,98522.09
2023-05-19T08:15:59.843Z,98522.59
2023-05-19T08:19:05.377Z,98516.88
2023-05-19T08:22:08.602Z,98524.44
2023-05-19T08:25:12.175Z,98515.34
2023-05-19T08:28:16.744Z,98525.84
2023-05-19T08:31:20.114Z,98526.31
2023-05-19T08:34:23.442Z,98524.41
2023-05-19T08:37:26.640Z,98520.31
2023-05-19T08:40:31.914Z,98513.34
2023-05-19T08:43:36.905Z,98504.09
2023-05-19T08:46:40.292Z,98511.06
2023-05-19T08:49:46.221Z,98500.22
2023-05-19T08:52:54.136Z,98460.38
2023-05-19T08:56:02.427Z,98500.72
2023-05-19T08:59:08.640Z,98496.72
2023-05-19T09:02:14.097Z,98506.72
2023-05-19T09:05:18.924Z,98498.88
2023-05-19T09:08:22.584Z,98501.00
2023-05-19T09:11:26.106Z,98504.31
2023-05-19T09:14:31.472Z,98507.34
2023-05-19T09:17:35.381Z,98496.16
2023-05-19T09:20:40.634Z,98503.91
2023-05-19T09:23:48.771Z,98511.16
2023-05-19T09:26:52.106Z,98491.47
2023-05-19T09:29:56.713Z,98503.16
2023-05-19T09:34:41.708Z,98501.06
2023-05-19T09:37:45.059Z,98508.88
2023-05-19T09:40:49.757Z,98506.94
2023-05-19T09:43:56.138Z,98503.84
2023-05-19T09:47:00.080Z,98501.63
2023-05-19T09:50:06.678Z,98499.44
2023-05-19T09:53:10.557Z,98495.09
2023-05-19T09:56:16.241Z,98493.47
2023-05-19T09:59:20.531Z,98482.91
2023-05-19T10:02:26.074Z,98482.09
2023-05-19T10:05:31.454Z,98477.16
2023-05-19T10:08:36.035Z,98482.09
2023-05-19T10:11:40.092Z,98480.72
2023-05-19T10:14:43.484Z,98470.28
2023-05-19T10:17:47.590Z,98468.50
2023-05-19T10:20:53.705Z,98460.63
2023-05-19T10:23:56.908Z,98455.72
2023-05-19T10:27:05.519Z,98444.81
2023-05-19T10:30:14.426Z,98441.75
2023-05-19T10:33:23.195Z,98440.16
2023-05-19T10:36:40.505Z,98431.94
2023-05-19T10:39:45.078Z,98436.09
2023-05-19T10:42:58.890Z,98435.91
2023-05-19T10:46:02.932Z,98435.94
2023-05-19T10:49:08.498Z,98436.22
2023-05-19T10:52:23.381Z,98430.94
2023-05-19T10:55:46.097Z,98428.22
2023-05-19T10:58:53.062Z,98434.03
2023-05-19T11:01:58.552Z,98429.84
2023-05-19T11:05:10.078Z,98426.25
2023-05-19T11:08:18.666Z,98428.28
2023-05-19T11:11:23.392Z,98430.97
2023-05-19T11:14:28.238Z,98426.13
2023-05-19T11:17:33.174Z,98419.63
2023-05-19T11:20:40.272Z,98421.25
2023-05-19T11:23:44.815Z,98429.50
2023-05-19T11:26:48.103Z,98428.53
2023-05-19T11:29:52.456Z,98425.00
2023-05-19T11:32:56.188Z,98410.81
2023-05-19T11:35:59.570Z,98417.03
2023-05-19T11:39:05.922Z,98405.66
2023-05-19T11:42:10.482Z,98372.25
2023-05-19T11:45:13.721Z,98405.69
2023-05-19T11:48:17.322Z,98400.44
2023-05-19T11:51:22.689Z,98390.41
2023-05-19T11:54:33.027Z,98380.78
2023-05-19T11:57:36.681Z,98369.56
2023-05-19T12:00:41.628Z,98371.97
2023-05-19T12:03:45.033Z,98355.59
2023-05-19T12:06:49.910Z,98356.75
2023-05-19T12:09:55.986Z,98365.09
2023-05-19T12:13:00.749Z,98354.22
2023-05-19T12:16:05.283Z,98358.72
2023-05-19T12:19:10.293Z,98348.22
2023-05-19T12:22:13.918Z,98362.00
2023-05-19T12:25:19.503Z,98347.47
2023-05-19T12:28:22.739Z,98352.31
2023-05-19T12:31:26.871Z,98351.50
2023-05-19T12:34:30.418Z,98349.59
2023-05-19T12:37:36.207Z,98344.25
2023-05-19T12:40:41.107Z,98335.50
2023-05-19T12:43:44.254Z,98340.13
2023-05-19T12:46:47.462Z,98340.03
2023-05-19T12:49:57.656Z,98327.50
2023-05-19T12:53:01.110Z,98331.72
2023-05-19T12:56:12.245Z,98331.59
2023-05-19T12:59:34.824Z,98316.81
2023-05-19T13:02:56.650Z,98334.03
2023-05-19T13:06:00.331Z,98317.75
2023-05-19T13:09:04.282Z,98322.06
2023-05-19T13:12:08.970Z,98323.41
2023-05-19T13:15:12.885Z,98309.91
2023-05-19T13:18:16.518Z,98330.06
2023-05-19T13:21:19.818Z,98305.47
2023-05-19T13:24:23.030Z,98293.16
2023-05-19T13:27:27.632Z,98306.03
2023-05-19T13:30:31.797Z,98295.09
2023-05-19T13:33:35.284Z,98296.28
2023-05-19T13:36:39.156Z,98302.22
2023-05-19T13:39:42.391Z,98287.56
2023-05-19T13:42:47.283Z,98292.69
2023-05-19T13:45:50.493Z,98292.59
2023-05-19T13:48:53.756Z,98297.34
2023-05-19T13:51:57.831Z,98292.34
2023-05-19T13:55:01.210Z,98301.06
2023-05-19T13:58:05.764Z,98303.66
2023-05-19T14:01:09.429Z,98296.25
2023-05-19T14:04:12.933Z,98291.50
2023-05-19T14:07:16.755Z,98284.91
2023-05-19T14:10:20.022Z,98295.28
2023-05-19T14:13:33.687Z,98265.59
2023-05-19T14:16:38.431Z,98286.03
2023-05-19T14:19:44.526Z,98272.75
2023-05-19T14:22:50.181Z,98278.97
2023-05-19T14:25:53.499Z,98275.06
2023-05-19T14:28:58.090Z,98267.88
2023-05-19T14:32:02.836Z,98266.22
2023-05-19T14:35:07.372Z,98265.69
2023-05-19T14:38:10.948Z,98259.97
2023-05-19T14:41:14.252Z,98256.03
2023-05-19T14:44:18.953Z,98263.06
2023-05-19T14:47:22.135Z,98256.38
2023-05-19T14:50:26.911Z,98252.78
2023-05-19T14:53:31.206Z,98242.50
2023-05-19T14:56:34.440Z,98249.44
2023-05-19T14:59:39.614Z,98249.72
2023-05-19T15:02:42.872Z,98163.91
2023-05-19T15:05:46.138Z,98252.06
2023-05-19T15:08:49.305Z,98242.78
2023-05-19T15:11:52.594Z,98246.03
2023-05-19T15:14:57.257Z,98244.22
2023-05-19T15:18:00.743Z,98251.00
2023-05-19T15:21:03.991Z,98255.31
2023-05-19T15:24:07.943Z,98251.59
2023-05-19T15:27:11.245Z,98245.19
2023-05-19T15:30:16.097Z,98236.94
2023-05-19T15:34:36.091Z,98238.47
2023-05-19T15:37:39.246Z,98246.72
2023-05-19T15:40:43.584Z,98246.97
2023-05-19T15:43:47.223Z,98255.44
2023-05-19T15:46:50.701Z,98255.34
2023-05-19T15:49:55.705Z,98256.16
2023-05-19T15:52:58.875Z,98249.13
2023-05-19T15:56:03.337Z,98242.66
2023-05-19T15:59:13.299Z,98245.78
2023-05-19T16:02:16.893Z,98246.81
2023-05-19T16:05:21.763Z,98245.41
2023-05-19T16:08:25.744Z,98232.25
2023-05-19T16:11:28.999Z,98252.31
2023-05-19T16:14:36.308Z,98247.44
2023-05-19T16:17:40.037Z,98242.84
2023-05-19T16:20:44.895Z,98259.38
2023-05-19T16:23:48.537Z,98235.50
2023-05-19T16:26:53.533Z,98238.69
2023-05-19T16:29:56.954Z,98233.09
2023-05-19T16:33:00.752Z,98239.41
2023-05-19T16:36:06.455Z,98240.25
2023-05-19T16:39:09.611Z,98241.78
2023-05-19T16:42:12.890Z,98251.84
2023-05-19T16:45:17.393Z,98247.66
2023-05-19T16:48:21.671Z,98241.91
2023-05-19T16:51:26.283Z,98251.25
2023-05-19T16:54:29.615Z,98239.16
2023-05-19T16:57:32.817Z,98246.75
2023-05-19T17:00:36.315Z,98239.34
2023-05-19T17:03:39.509Z,98232.31
2023-05-19T17:06:46.125Z,98241.16
2023-05-19T17:09:49.510Z,98237.81
2023-05-19T17:12:52.706Z,98237.22
2023-05-19T17:15:55.905Z,98237.59
2023-05-19T17:18:59.283Z,98235.44
2023-05-19T17:22:04.488Z,98238.78
2023-05-19T17:25:08.609Z,98244.91
2023-05-19T17:28:11.927Z,98245.44
2023-05-19T17:31:16.245Z,98236.25
2023-05-19T17:34:19.414Z,98239.31
2023-05-19T17:37:25.613Z,98241.22
2023-05-19T17:40:28.999Z,98243.72
2023-05-19T17:43:32.254Z,98246.78
2023-05-19T17:46:36.126Z,98247.34
2023-05-19T17:49:40.214Z,98254.34
2023-05-19T17:52:45.762Z,98250.56
2023-05-19T17:55:52.068Z,98251.50
2023-05-19T17:58:55.893Z,98252.56
2023-05-19T18:02:00.068Z,98255.31
2023-05-19T18:05:04.059Z,98254.75
2023-05-19T18:08:09.565Z,98253.78
2023-05-19T18:11:16.004Z,98250.69
2023-05-19T18:14:19.364Z,98248.78
2023-05-19T18:17:22.544Z,98246.69
2023-05-19T18:20:25.759Z,98245.13
2023-05-19T18:23:30.555Z,98241.56
2023-05-19T18:26:34.091Z,98251.97
2023-05-19T18:29:37.400Z,98246.72
2023-05-19T18:32:40.655Z,98248.09
2023-05-19T18:35:43.885Z,98245.38
2023-05-19T18:38:48.603Z,98240.56
2023-05-19T18:41:51.750Z,98243.19
2023-05-19T18:44:55.008Z,98236.06
2023-05-19T18:47:58.248Z,98248.63
2023-05-19T18:51:03.631Z,98256.91
2023-05-19T18:54:08.396Z,98245.91
2023-05-19T18:57:11.899Z,98263.38
2023-05-19T19:00:15.958Z,98263.72
2023-05-19T19:03:19.435Z,98263.47
2023-05-19T19:06:23.245Z,98267.00
2023-05-19T19:09:27.877Z,98275.78
2023-05-19T19:12:34.160Z,98287.63
2023-05-19T19:15:37.700Z,98292.47
2023-05-19T19:18:41.954Z,98297.56
2023-05-19T19:21:45.305Z,98275.38
2023-05-19T19:24:49.940Z,98293.69
2023-05-19T19:27:53.182Z,98287.97
2023-05-19T19:30:56.444Z,98299.00
2023-05-19T19:34:03.569Z,98288.91
2023-05-19T19:37:06.739Z,98288.28
2023-05-19T19:40:12.723Z,98293.34
2023-05-19T19:43:15.919Z,98303.53
2023-05-19T19:46:19.637Z,98298.13
2023-05-19T19:49:22.861Z,98306.81
2023-05-19T19:52:26.492Z,98295.53
2023-05-19T19:55:31.735Z,98304.72
2023-05-19T19:58:35.082Z,98298.03
2023-05-19T20:01:38.333Z,98300.75
2023-05-19T20:04:41.560Z,98304.78
2023-05-19T20:07:44.903Z,98299.91
2023-05-19T20:10:50.690Z,98289.56
2023-05-19T20:13:54.201Z,98299.66
2023-05-19T20:16:57.812Z,98295.44
2023-05-19T20:20:09.739Z,98294.06
2023-05-19T20:23:13.363Z,98293.13
2023-05-19T20:26:18.066Z,98298.13
2023-05-19T20:29:21.286Z,98302.59
2023-05-19T20:32:24.474Z,98298.47
2023-05-19T20:35:27.856Z,98298.47
2023-05-19T20:38:31.203Z,98292.44
2023-05-19T20:41:35.857Z,98300.00
2023-05-19T20:44:39.077Z,98300.53
2023-05-19T20:47:42.276Z,98303.88
2023-05-19T20:50:45.750Z,98298.81
2023-05-19T20:53:48.958Z,98300.16
2023-05-19T20:56:53.569Z,98309.00
2023-05-19T20:59:56.734Z,98306.22
2023-05-19T21:03:00.003Z,98309.25
2023-05-19T21:06:03.915Z,98309.16
2023-05-19T21:09:07.148Z,98310.25
2023-05-19T21:12:11.682Z,98311.19
2023-05-19T21:15:15.666Z,98309.22
2023-05-19T21:18:18.944Z,98310.81
2023-05-19T21:21:22.153Z,98310.19
2023-05-19T21:24:25.615Z,98312.78
2023-05-19T21:27:32.124Z,98305.41
2023-05-19T21:34:35.987Z,98293.56
2023-05-19T21:37:39.573Z,98297.34
2023-05-19T21:40:42.831Z,98299.88
2023-05-19T21:43:47.218Z,98298.31
2023-05-19T21:46:50.577Z,98300.53
2023-05-19T21:49:55.314Z,98294.31
2023-05-19T21:52:58.439Z,98294.03
2023-05-19T21:56:01.747Z,98288.00
2023-05-19T21:59:14.043Z,98294.44
2023-05-19T22:02:17.232Z,98278.50
2023-05-19T22:05:22.011Z,98290.78
2023-05-19T22:08:26.069Z,98284.25
2023-05-19T22:11:29.409Z,98287.91
2023-05-19T22:14:32.758Z,98280.91
2023-05-19T22:17:35.985Z,98280.56
2023-05-19T22:20:40.772Z,98284.41
2023-05-19T22:23:44.035Z,98281.31
2023-05-19T22:26:47.293Z,98270.56
2023-05-19T22:29:50.506Z,98272.56
2023-05-19T22:32:53.754Z,98268.63
2023-05-19T22:35:58.409Z,98266.72
2023-05-19T22:39:01.571Z,98268.63
2023-05-19T22:42:05.672Z,98262.44
2023-05-19T22:45:12.504Z,98257.38
2023-05-19T22:48:16.253Z,98260.72
2023-05-19T22:51:20.941Z,98254.44
2023-05-19T22:54:24.304Z,98256.91
2023-05-19T22:57:27.445Z,98233.03
2023-05-19T23:00:30.724Z,98253.94
2023-05-19T23:03:33.917Z,98258.34
2023-05-19T23:06:38.525Z,98261.56
2023-05-19T23:09:41.801Z,98258.66
2023-05-19T23:12:44.948Z,98263.50
2023-05-19T23:15:49.802Z,98251.50
2023-05-19T23:18:53.174Z,98255.69
2023-05-19T23:21:57.727Z,98255.03
2023-05-19T23:25:01.843Z,98243.47
2023-05-19T23:28:05.371Z,98242.25
2023-05-19T23:31:08.966Z,98244.94
2023-05-19T23:34:12.222Z,98237.22
2023-05-19T23:37:16.950Z,98246.56
2023-05-19T23:40:20.327Z,98239.25
2023-05-19T23:43:23.516Z,98232.03
2023-05-19T23:46:26.847Z,98234.81
2023-05-19T23:49:30.248Z,98231.84
2023-05-19T23:52:34.838Z,98234.81
2023-05-19T23:55:38.069Z,98229.34
2023-05-19T23:58:41.440Z,98232.13
